Nunda, South Dakota
Current Conditions -  °F | °C
As of 2:30 AM on Sunday 21 Dec 2014 (Local Time) from KMDS Reporting Station
Moderate Fog Moderate Fog  
Wind Chill: 18°   Ceiling: 200
Heat Index: 28°   Visibility: 0.25mi
Dew Point: 28°   Wind: 13mph
Humidity: 100%   Direction: 170°S
Pressure: 29.86"   Gusts: NA
Location:  44.16°N, 97.02°W
Report Text: KMDS 210830Z AUTO 17011KT 1/4SM FZFG OVC002 M02/M02 A2986 RMK AO2
Loading
Personal Weather Stations






























Interactive Weather Map New forecast layout! Learn more

10-Day Weather Forecast

Advertisements
Track Severe Weather on mobile